sensor_id;sensor_type;location;lat;lon;timestamp;P1;durP1;ratioP1;P2;durP2;ratioP2
27666;SDS011;15074;50.940;5.282;2023-03-14T00:00:36;6.00;;;1.02;;
27666;SDS011;15074;50.940;5.282;2023-03-14T00:03:01;2.47;;;0.88;;
27666;SDS011;15074;50.940;5.282;2023-03-14T00:05:27;3.38;;;1.20;;
27666;SDS011;15074;50.940;5.282;2023-03-14T00:07:53;5.55;;;1.58;;
27666;SDS011;15074;50.940;5.282;2023-03-14T00:10:18;2.30;;;0.93;;
27666;SDS011;15074;50.940;5.282;2023-03-14T00:12:45;3.83;;;0.90;;
27666;SDS011;15074;50.940;5.282;2023-03-14T00:15:11;1.60;;;0.70;;
27666;SDS011;15074;50.940;5.282;2023-03-14T00:17:37;2.47;;;1.08;;
27666;SDS011;15074;50.940;5.282;2023-03-14T00:20:03;1.67;;;0.77;;
27666;SDS011;15074;50.940;5.282;2023-03-14T00:22:36;4.95;;;1.77;;
27666;SDS011;15074;50.940;5.282;2023-03-14T00:25:03;2.17;;;0.90;;
27666;SDS011;15074;50.940;5.282;2023-03-14T00:27:30;2.85;;;0.68;;
27666;SDS011;15074;50.940;5.282;2023-03-14T00:29:57;3.08;;;1.00;;
27666;SDS011;15074;50.940;5.282;2023-03-14T00:32:22;4.45;;;1.08;;
27666;SDS011;15074;50.940;5.282;2023-03-14T00:34:48;3.63;;;1.27;;
27666;SDS011;15074;50.940;5.282;2023-03-14T00:37:14;4.00;;;1.50;;
27666;SDS011;15074;50.940;5.282;2023-03-14T00:39:40;3.38;;;0.75;;
27666;SDS011;15074;50.940;5.282;2023-03-14T00:42:06;3.97;;;0.80;;
27666;SDS011;15074;50.940;5.282;2023-03-14T00:44:32;3.15;;;1.00;;
27666;SDS011;15074;50.940;5.282;2023-03-14T00:46:58;4.00;;;1.05;;
27666;SDS011;15074;50.940;5.282;2023-03-14T00:49:24;2.10;;;1.10;;
27666;SDS011;15074;50.940;5.282;2023-03-14T00:51:49;3.53;;;1.17;;
27666;SDS011;15074;50.940;5.282;2023-03-14T00:54:16;5.13;;;2.00;;
27666;SDS011;15074;50.940;5.282;2023-03-14T00:56:42;3.90;;;1.02;;
27666;SDS011;15074;50.940;5.282;2023-03-14T00:59:08;4.60;;;1.00;;
27666;SDS011;15074;50.940;5.282;2023-03-14T01:01:34;6.75;;;2.17;;
27666;SDS011;15074;50.940;5.282;2023-03-14T01:04:01;4.80;;;1.95;;
27666;SDS011;15074;50.940;5.282;2023-03-14T01:06:27;4.05;;;1.08;;
27666;SDS011;15074;50.940;5.282;2023-03-14T01:08:54;4.90;;;1.27;;
27666;SDS011;15074;50.940;5.282;2023-03-14T01:11:23;2.92;;;1.08;;
27666;SDS011;15074;50.940;5.282;2023-03-14T01:13:50;4.25;;;0.98;;
27666;SDS011;15074;50.940;5.282;2023-03-14T01:16:17;4.13;;;1.30;;
27666;SDS011;15074;50.940;5.282;2023-03-14T01:18:45;5.05;;;1.23;;
27666;SDS011;15074;50.940;5.282;2023-03-14T01:23:41;7.05;;;1.55;;
27666;SDS011;15074;50.940;5.282;2023-03-14T01:26:08;6.43;;;1.90;;
27666;SDS011;15074;50.940;5.282;2023-03-14T01:28:35;6.47;;;1.20;;
27666;SDS011;15074;50.940;5.282;2023-03-14T01:31:05;7.03;;;1.15;;
27666;SDS011;15074;50.940;5.282;2023-03-14T01:33:32;8.02;;;1.70;;
27666;SDS011;15074;50.940;5.282;2023-03-14T01:35:58;8.45;;;1.17;;
27666;SDS011;15074;50.940;5.282;2023-03-14T01:38:27;3.70;;;0.75;;
27666;SDS011;15074;50.940;5.282;2023-03-14T01:40:56;5.03;;;1.23;;
27666;SDS011;15074;50.940;5.282;2023-03-14T01:43:22;2.88;;;0.82;;
27666;SDS011;15074;50.940;5.282;2023-03-14T01:48:35;6.90;;;0.93;;
27666;SDS011;15074;50.940;5.282;2023-03-14T01:51:04;4.55;;;1.23;;
27666;SDS011;15074;50.940;5.282;2023-03-14T01:53:34;4.20;;;1.20;;
27666;SDS011;15074;50.940;5.282;2023-03-14T01:56:01;11.27;;;2.25;;
27666;SDS011;15074;50.940;5.282;2023-03-14T01:58:28;6.33;;;1.70;;
27666;SDS011;15074;50.940;5.282;2023-03-14T02:00:57;3.42;;;1.42;;
27666;SDS011;15074;50.940;5.282;2023-03-14T02:03:24;4.97;;;1.23;;
27666;SDS011;15074;50.940;5.282;2023-03-14T02:05:51;3.28;;;1.30;;
27666;SDS011;15074;50.940;5.282;2023-03-14T02:08:20;7.05;;;1.50;;
27666;SDS011;15074;50.940;5.282;2023-03-14T02:10:49;5.43;;;1.40;;
27666;SDS011;15074;50.940;5.282;2023-03-14T02:13:18;5.75;;;1.85;;
27666;SDS011;15074;50.940;5.282;2023-03-14T02:15:46;6.40;;;1.10;;
27666;SDS011;15074;50.940;5.282;2023-03-14T02:18:12;4.28;;;1.00;;
27666;SDS011;15074;50.940;5.282;2023-03-14T02:26:05;9.52;;;1.42;;
27666;SDS011;15074;50.940;5.282;2023-03-14T02:28:39;4.63;;;1.35;;
27666;SDS011;15074;50.940;5.282;2023-03-14T02:31:04;7.05;;;1.50;;
27666;SDS011;15074;50.940;5.282;2023-03-14T02:33:30;6.75;;;1.48;;
27666;SDS011;15074;50.940;5.282;2023-03-14T02:36:01;8.02;;;1.65;;
27666;SDS011;15074;50.940;5.282;2023-03-14T02:40:58;8.27;;;1.73;;
27666;SDS011;15074;50.940;5.282;2023-03-14T02:43:24;10.70;;;1.95;;
27666;SDS011;15074;50.940;5.282;2023-03-14T02:45:50;10.35;;;1.95;;
27666;SDS011;15074;50.940;5.282;2023-03-14T02:48:26;6.35;;;1.65;;
27666;SDS011;15074;50.940;5.282;2023-03-14T02:50:57;9.43;;;1.95;;
27666;SDS011;15074;50.940;5.282;2023-03-14T02:53:25;3.55;;;1.30;;
27666;SDS011;15074;50.940;5.282;2023-03-14T02:55:54;8.65;;;1.92;;
27666;SDS011;15074;50.940;5.282;2023-03-14T02:58:19;6.40;;;1.30;;
27666;SDS011;15074;50.940;5.282;2023-03-14T03:00:46;4.15;;;1.15;;
27666;SDS011;15074;50.940;5.282;2023-03-14T03:03:12;4.65;;;1.40;;
27666;SDS011;15074;50.940;5.282;2023-03-14T03:05:38;5.28;;;1.63;;
27666;SDS011;15074;50.940;5.282;2023-03-14T03:08:04;3.50;;;0.85;;
27666;SDS011;15074;50.940;5.282;2023-03-14T03:10:31;6.72;;;2.22;;
27666;SDS011;15074;50.940;5.282;2023-03-14T03:12:56;3.45;;;1.20;;
27666;SDS011;15074;50.940;5.282;2023-03-14T03:15:22;3.67;;;1.30;;
27666;SDS011;15074;50.940;5.282;2023-03-14T03:17:48;2.95;;;0.88;;
27666;SDS011;15074;50.940;5.282;2023-03-14T03:20:14;6.53;;;4.60;;
27666;SDS011;15074;50.940;5.282;2023-03-14T03:22:40;2.95;;;1.05;;
27666;SDS011;15074;50.940;5.282;2023-03-14T03:25:06;2.83;;;0.73;;
27666;SDS011;15074;50.940;5.282;2023-03-14T03:27:36;3.22;;;1.30;;
27666;SDS011;15074;50.940;5.282;2023-03-14T03:30:03;3.22;;;1.00;;
27666;SDS011;15074;50.940;5.282;2023-03-14T03:34:56;2.97;;;0.90;;
27666;SDS011;15074;50.940;5.282;2023-03-14T03:37:22;5.40;;;1.50;;
27666;SDS011;15074;50.940;5.282;2023-03-14T03:39:49;6.20;;;1.73;;
27666;SDS011;15074;50.940;5.282;2023-03-14T03:42:16;7.22;;;2.03;;
27666;SDS011;15074;50.940;5.282;2023-03-14T03:44:42;9.15;;;1.75;;
27666;SDS011;15074;50.940;5.282;2023-03-14T03:47:07;12.23;;;4.28;;
27666;SDS011;15074;50.940;5.282;2023-03-14T03:49:33;4.47;;;1.80;;
27666;SDS011;15074;50.940;5.282;2023-03-14T03:51:59;7.57;;;2.22;;
27666;SDS011;15074;50.940;5.282;2023-03-14T03:54:25;5.22;;;1.77;;
27666;SDS011;15074;50.940;5.282;2023-03-14T03:56:51;10.23;;;2.00;;
27666;SDS011;15074;50.940;5.282;2023-03-14T03:59:17;14.05;;;2.28;;
27666;SDS011;15074;50.940;5.282;2023-03-14T04:01:43;8.15;;;2.47;;
27666;SDS011;15074;50.940;5.282;2023-03-14T04:04:09;10.25;;;2.45;;
27666;SDS011;15074;50.940;5.282;2023-03-14T04:06:35;5.50;;;1.80;;
27666;SDS011;15074;50.940;5.282;2023-03-14T04:09:01;9.18;;;1.92;;
27666;SDS011;15074;50.940;5.282;2023-03-14T04:11:28;4.28;;;1.42;;
27666;SDS011;15074;50.940;5.282;2023-03-14T04:13:53;9.07;;;1.67;;
27666;SDS011;15074;50.940;5.282;2023-03-14T04:16:20;6.43;;;1.92;;
27666;SDS011;15074;50.940;5.282;2023-03-14T04:18:47;5.38;;;1.95;;
27666;SDS011;15074;50.940;5.282;2023-03-14T04:21:13;6.53;;;1.90;;
27666;SDS011;15074;50.940;5.282;2023-03-14T04:23:39;5.43;;;1.60;;
27666;SDS011;15074;50.940;5.282;2023-03-14T04:26:05;5.75;;;1.45;;
27666;SDS011;15074;50.940;5.282;2023-03-14T04:28:31;5.93;;;1.38;;
27666;SDS011;15074;50.940;5.282;2023-03-14T04:30:57;4.88;;;1.75;;
27666;SDS011;15074;50.940;5.282;2023-03-14T04:33:22;5.35;;;1.60;;
27666;SDS011;15074;50.940;5.282;2023-03-14T04:35:48;4.50;;;1.08;;
27666;SDS011;15074;50.940;5.282;2023-03-14T04:38:17;3.15;;;0.85;;
27666;SDS011;15074;50.940;5.282;2023-03-14T04:40:43;4.18;;;1.38;;
27666;SDS011;15074;50.940;5.282;2023-03-14T04:43:09;5.20;;;1.33;;
27666;SDS011;15074;50.940;5.282;2023-03-14T04:45:36;2.30;;;0.73;;
27666;SDS011;15074;50.940;5.282;2023-03-14T04:48:06;8.10;;;1.63;;
27666;SDS011;15074;50.940;5.282;2023-03-14T04:50:31;3.00;;;0.98;;
27666;SDS011;15074;50.940;5.282;2023-03-14T04:52:57;3.13;;;0.98;;
27666;SDS011;15074;50.940;5.282;2023-03-14T04:55:23;4.55;;;0.95;;
27666;SDS011;15074;50.940;5.282;2023-03-14T04:57:49;3.00;;;0.75;;
27666;SDS011;15074;50.940;5.282;2023-03-14T05:00:14;2.47;;;0.70;;
27666;SDS011;15074;50.940;5.282;2023-03-14T05:05:09;2.08;;;0.70;;
27666;SDS011;15074;50.940;5.282;2023-03-14T05:07:34;2.22;;;0.60;;
27666;SDS011;15074;50.940;5.282;2023-03-14T05:10:00;1.85;;;1.30;;
27666;SDS011;15074;50.940;5.282;2023-03-14T05:12:26;1.88;;;0.75;;
27666;SDS011;15074;50.940;5.282;2023-03-14T05:14:51;2.95;;;0.60;;
27666;SDS011;15074;50.940;5.282;2023-03-14T05:17:17;1.02;;;0.50;;
27666;SDS011;15074;50.940;5.282;2023-03-14T05:19:43;2.35;;;0.60;;
27666;SDS011;15074;50.940;5.282;2023-03-14T05:22:09;1.50;;;0.60;;
27666;SDS011;15074;50.940;5.282;2023-03-14T05:24:35;2.67;;;0.68;;
27666;SDS011;15074;50.940;5.282;2023-03-14T05:27:01;1.13;;;0.60;;
27666;SDS011;15074;50.940;5.282;2023-03-14T05:29:27;1.85;;;0.70;;
27666;SDS011;15074;50.940;5.282;2023-03-14T05:31:53;0.85;;;0.65;;
27666;SDS011;15074;50.940;5.282;2023-03-14T05:34:19;1.02;;;0.50;;
27666;SDS011;15074;50.940;5.282;2023-03-14T05:36:44;1.80;;;0.82;;
27666;SDS011;15074;50.940;5.282;2023-03-14T05:39:10;1.60;;;0.80;;
27666;SDS011;15074;50.940;5.282;2023-03-14T05:41:36;1.77;;;0.70;;
27666;SDS011;15074;50.940;5.282;2023-03-14T05:44:01;3.03;;;1.05;;
27666;SDS011;15074;50.940;5.282;2023-03-14T05:46:27;2.03;;;1.00;;
27666;SDS011;15074;50.940;5.282;2023-03-14T05:48:54;1.85;;;0.90;;
27666;SDS011;15074;50.940;5.282;2023-03-14T05:51:19;2.53;;;1.20;;
27666;SDS011;15074;50.940;5.282;2023-03-14T05:53:45;2.35;;;1.42;;
27666;SDS011;15074;50.940;5.282;2023-03-14T05:56:11;3.50;;;2.75;;
27666;SDS011;15074;50.940;5.282;2023-03-14T05:58:36;2.40;;;1.48;;
27666;SDS011;15074;50.940;5.282;2023-03-14T06:01:03;3.72;;;1.58;;
27666;SDS011;15074;50.940;5.282;2023-03-14T06:03:30;3.15;;;1.90;;
27666;SDS011;15074;50.940;5.282;2023-03-14T06:05:56;3.20;;;2.03;;
27666;SDS011;15074;50.940;5.282;2023-03-14T06:08:22;3.42;;;2.17;;
27666;SDS011;15074;50.940;5.282;2023-03-14T06:10:48;5.68;;;2.50;;
27666;SDS011;15074;50.940;5.282;2023-03-14T06:13:14;3.33;;;1.92;;
27666;SDS011;15074;50.940;5.282;2023-03-14T06:15:40;3.20;;;1.95;;
27666;SDS011;15074;50.940;5.282;2023-03-14T06:18:06;4.30;;;1.80;;
27666;SDS011;15074;50.940;5.282;2023-03-14T06:20:32;3.42;;;1.65;;
27666;SDS011;15074;50.940;5.282;2023-03-14T06:23:00;3.42;;;1.98;;
27666;SDS011;15074;50.940;5.282;2023-03-14T06:25:25;2.50;;;1.70;;
27666;SDS011;15074;50.940;5.282;2023-03-14T06:27:51;2.35;;;1.70;;
27666;SDS011;15074;50.940;5.282;2023-03-14T06:30:17;2.67;;;1.85;;
27666;SDS011;15074;50.940;5.282;2023-03-14T06:32:42;5.35;;;1.63;;
27666;SDS011;15074;50.940;5.282;2023-03-14T06:35:08;2.65;;;1.42;;
27666;SDS011;15074;50.940;5.282;2023-03-14T06:37:34;2.72;;;1.38;;
27666;SDS011;15074;50.940;5.282;2023-03-14T06:39:59;3.88;;;1.25;;
27666;SDS011;15074;50.940;5.282;2023-03-14T06:42:25;4.03;;;1.48;;
27666;SDS011;15074;50.940;5.282;2023-03-14T06:44:51;2.63;;;1.13;;
27666;SDS011;15074;50.940;5.282;2023-03-14T06:47:16;3.00;;;1.20;;
27666;SDS011;15074;50.940;5.282;2023-03-14T06:49:42;3.85;;;1.17;;
27666;SDS011;15074;50.940;5.282;2023-03-14T06:52:08;2.00;;;1.23;;
27666;SDS011;15074;50.940;5.282;2023-03-14T06:54:33;1.90;;;1.15;;
27666;SDS011;15074;50.940;5.282;2023-03-14T06:56:59;1.45;;;0.93;;
27666;SDS011;15074;50.940;5.282;2023-03-14T06:59:24;2.33;;;1.25;;
27666;SDS011;15074;50.940;5.282;2023-03-14T07:01:50;2.08;;;1.20;;
27666;SDS011;15074;50.940;5.282;2023-03-14T07:04:16;2.17;;;1.25;;
27666;SDS011;15074;50.940;5.282;2023-03-14T07:06:42;2.70;;;1.10;;
27666;SDS011;15074;50.940;5.282;2023-03-14T07:09:12;2.78;;;1.30;;
27666;SDS011;15074;50.940;5.282;2023-03-14T07:11:38;2.08;;;1.25;;
27666;SDS011;15074;50.940;5.282;2023-03-14T07:14:04;2.35;;;1.15;;
27666;SDS011;15074;50.940;5.282;2023-03-14T07:16:29;4.35;;;2.42;;
27666;SDS011;15074;50.940;5.282;2023-03-14T07:18:57;4.32;;;3.47;;
27666;SDS011;15074;50.940;5.282;2023-03-14T07:21:24;5.68;;;4.95;;
27666;SDS011;15074;50.940;5.282;2023-03-14T07:23:50;4.78;;;2.30;;
27666;SDS011;15074;50.940;5.282;2023-03-14T07:26:16;3.38;;;2.30;;
27666;SDS011;15074;50.940;5.282;2023-03-14T07:28:41;2.55;;;1.50;;
27666;SDS011;15074;50.940;5.282;2023-03-14T07:31:07;3.65;;;1.38;;
27666;SDS011;15074;50.940;5.282;2023-03-14T07:33:33;2.88;;;1.70;;
27666;SDS011;15074;50.940;5.282;2023-03-14T07:35:59;4.10;;;1.60;;
27666;SDS011;15074;50.940;5.282;2023-03-14T07:38:24;5.10;;;3.83;;
27666;SDS011;15074;50.940;5.282;2023-03-14T07:40:50;5.13;;;4.40;;
27666;SDS011;15074;50.940;5.282;2023-03-14T07:43:22;2.90;;;1.75;;
27666;SDS011;15074;50.940;5.282;2023-03-14T07:45:48;2.45;;;1.73;;
27666;SDS011;15074;50.940;5.282;2023-03-14T07:48:13;2.55;;;1.42;;
27666;SDS011;15074;50.940;5.282;2023-03-14T07:50:39;1.98;;;1.40;;
27666;SDS011;15074;50.940;5.282;2023-03-14T07:53:05;1.25;;;0.70;;
27666;SDS011;15074;50.940;5.282;2023-03-14T07:55:30;0.70;;;0.50;;
27666;SDS011;15074;50.940;5.282;2023-03-14T07:57:56;2.45;;;1.23;;
27666;SDS011;15074;50.940;5.282;2023-03-14T08:00:22;1.38;;;1.10;;
27666;SDS011;15074;50.940;5.282;2023-03-14T08:02:47;1.48;;;1.30;;
27666;SDS011;15074;50.940;5.282;2023-03-14T08:05:13;1.73;;;1.38;;
27666;SDS011;15074;50.940;5.282;2023-03-14T08:07:39;2.30;;;1.60;;
27666;SDS011;15074;50.940;5.282;2023-03-14T08:10:05;2.22;;;1.30;;
27666;SDS011;15074;50.940;5.282;2023-03-14T08:12:31;3.30;;;1.70;;
27666;SDS011;15074;50.940;5.282;2023-03-14T08:14:56;2.05;;;1.10;;
27666;SDS011;15074;50.940;5.282;2023-03-14T08:17:24;2.55;;;1.27;;
27666;SDS011;15074;50.940;5.282;2023-03-14T08:19:50;1.45;;;0.98;;
27666;SDS011;15074;50.940;5.282;2023-03-14T08:22:16;1.35;;;0.98;;
27666;SDS011;15074;50.940;5.282;2023-03-14T08:24:41;2.72;;;1.88;;
27666;SDS011;15074;50.940;5.282;2023-03-14T08:27:07;4.05;;;1.48;;
27666;SDS011;15074;50.940;5.282;2023-03-14T08:29:33;2.47;;;1.45;;
27666;SDS011;15074;50.940;5.282;2023-03-14T08:31:58;3.30;;;1.80;;
27666;SDS011;15074;50.940;5.282;2023-03-14T08:34:24;6.50;;;3.97;;
27666;SDS011;15074;50.940;5.282;2023-03-14T08:36:50;4.18;;;3.70;;
27666;SDS011;15074;50.940;5.282;2023-03-14T08:39:16;5.57;;;5.18;;
27666;SDS011;15074;50.940;5.282;2023-03-14T08:41:43;5.30;;;4.25;;
27666;SDS011;15074;50.940;5.282;2023-03-14T08:44:09;3.20;;;2.92;;
27666;SDS011;15074;50.940;5.282;2023-03-14T08:46:38;4.07;;;3.50;;
27666;SDS011;15074;50.940;5.282;2023-03-14T08:49:04;8.93;;;4.10;;
27666;SDS011;15074;50.940;5.282;2023-03-14T08:51:31;2.75;;;2.13;;
27666;SDS011;15074;50.940;5.282;2023-03-14T08:53:57;3.13;;;2.15;;
27666;SDS011;15074;50.940;5.282;2023-03-14T09:03:19;3.33;;;1.73;;
27666;SDS011;15074;50.940;5.282;2023-03-14T09:08:14;6.18;;;4.80;;
27666;SDS011;15074;50.940;5.282;2023-03-14T09:10:39;3.30;;;2.28;;
27666;SDS011;15074;50.940;5.282;2023-03-14T09:13:05;4.75;;;2.47;;
27666;SDS011;15074;50.940;5.282;2023-03-14T09:15:31;4.75;;;1.92;;
27666;SDS011;15074;50.940;5.282;2023-03-14T09:17:57;2.95;;;2.00;;
27666;SDS011;15074;50.940;5.282;2023-03-14T09:20:23;2.42;;;1.80;;
27666;SDS011;15074;50.940;5.282;2023-03-14T09:22:48;3.00;;;1.92;;
27666;SDS011;15074;50.940;5.282;2023-03-14T09:25:14;4.90;;;1.35;;
27666;SDS011;15074;50.940;5.282;2023-03-14T09:27:41;4.35;;;2.20;;
27666;SDS011;15074;50.940;5.282;2023-03-14T09:30:08;5.03;;;2.55;;
27666;SDS011;15074;50.940;5.282;2023-03-14T09:32:35;2.85;;;2.10;;
27666;SDS011;15074;50.940;5.282;2023-03-14T09:35:01;2.65;;;2.15;;
27666;SDS011;15074;50.940;5.282;2023-03-14T09:37:27;5.47;;;2.10;;
27666;SDS011;15074;50.940;5.282;2023-03-14T09:39:52;4.13;;;2.15;;
27666;SDS011;15074;50.940;5.282;2023-03-14T09:42:18;3.15;;;2.25;;
27666;SDS011;15074;50.940;5.282;2023-03-14T09:44:54;3.72;;;2.72;;
27666;SDS011;15074;50.940;5.282;2023-03-14T09:47:24;6.40;;;1.70;;
27666;SDS011;15074;50.940;5.282;2023-03-14T09:49:51;2.28;;;1.40;;
27666;SDS011;15074;50.940;5.282;2023-03-14T09:54:57;1.20;;;0.90;;
27666;SDS011;15074;50.940;5.282;2023-03-14T09:57:29;2.67;;;1.10;;
27666;SDS011;15074;50.940;5.282;2023-03-14T09:59:58;4.05;;;1.20;;
27666;SDS011;15074;50.940;5.282;2023-03-14T10:02:37;1.60;;;1.00;;
27666;SDS011;15074;50.940;5.282;2023-03-14T10:05:05;2.00;;;0.90;;
27666;SDS011;15074;50.940;5.282;2023-03-14T10:07:39;1.15;;;0.73;;
27666;SDS011;15074;50.940;5.282;2023-03-14T10:10:09;2.38;;;1.10;;
27666;SDS011;15074;50.940;5.282;2023-03-14T10:12:38;1.92;;;0.80;;
27666;SDS011;15074;50.940;5.282;2023-03-14T10:15:05;3.03;;;0.90;;
27666;SDS011;15074;50.940;5.282;2023-03-14T10:17:39;2.33;;;1.08;;
27666;SDS011;15074;50.940;5.282;2023-03-14T10:20:07;2.47;;;1.17;;
27666;SDS011;15074;50.940;5.282;2023-03-14T10:22:52;1.77;;;1.05;;
27666;SDS011;15074;50.940;5.282;2023-03-14T10:25:28;2.13;;;1.00;;
27666;SDS011;15074;50.940;5.282;2023-03-14T10:35:07;1.30;;;0.90;;
27666;SDS011;15074;50.940;5.282;2023-03-14T10:38:13;0.98;;;0.80;;
27666;SDS011;15074;50.940;5.282;2023-03-14T10:40:46;2.50;;;1.17;;
27666;SDS011;15074;50.940;5.282;2023-03-14T10:43:32;7.05;;;1.02;;
27666;SDS011;15074;50.940;5.282;2023-03-14T10:49:36;1.60;;;0.90;;
27666;SDS011;15074;50.940;5.282;2023-03-14T10:55:27;1.88;;;0.93;;
27666;SDS011;15074;50.940;5.282;2023-03-14T11:03:29;1.52;;;0.90;;
27666;SDS011;15074;50.940;5.282;2023-03-14T11:06:41;2.05;;;0.70;;
27666;SDS011;15074;50.940;5.282;2023-03-14T11:09:53;1.55;;;0.60;;
27666;SDS011;15074;50.940;5.282;2023-03-14T11:13:15;1.20;;;0.52;;
27666;SDS011;15074;50.940;5.282;2023-03-14T11:15:53;0.88;;;0.60;;
27666;SDS011;15074;50.940;5.282;2023-03-14T11:29:51;1.40;;;1.10;;
27666;SDS011;15074;50.940;5.282;2023-03-14T11:31:48;1.67;;;1.10;;
27666;SDS011;15074;50.940;5.282;2023-03-14T11:34:50;1.50;;;1.00;;
27666;SDS011;15074;50.940;5.282;2023-03-14T11:40:18;1.45;;;1.10;;
27666;SDS011;15074;50.940;5.282;2023-03-14T11:42:46;1.70;;;1.35;;
27666;SDS011;15074;50.940;5.282;2023-03-14T11:45:34;2.03;;;1.10;;
27666;SDS011;15074;50.940;5.282;2023-03-14T11:48:07;1.98;;;1.13;;
27666;SDS011;15074;50.940;5.282;2023-03-14T11:50:38;2.15;;;1.10;;
27666;SDS011;15074;50.940;5.282;2023-03-14T11:55:39;1.70;;;1.20;;
27666;SDS011;15074;50.940;5.282;2023-03-14T11:58:20;1.63;;;1.20;;
27666;SDS011;15074;50.940;5.282;2023-03-14T12:00:53;1.75;;;1.00;;
27666;SDS011;15074;50.940;5.282;2023-03-14T12:06:13;2.38;;;1.05;;
27666;SDS011;15074;50.940;5.282;2023-03-14T12:08:53;1.33;;;0.77;;
27666;SDS011;15074;50.940;5.282;2023-03-14T12:14:18;4.13;;;1.00;;
27666;SDS011;15074;50.940;5.282;2023-03-14T12:16:52;2.53;;;1.20;;
27666;SDS011;15074;50.940;5.282;2023-03-14T12:24:29;3.13;;;1.40;;
27666;SDS011;15074;50.940;5.282;2023-03-14T12:26:58;4.05;;;0.90;;
27666;SDS011;15074;50.940;5.282;2023-03-14T12:29:25;0.85;;;0.82;;
27666;SDS011;15074;50.940;5.282;2023-03-14T12:34:44;2.30;;;1.00;;
27666;SDS011;15074;50.940;5.282;2023-03-14T12:43:10;3.88;;;1.17;;
27666;SDS011;15074;50.940;5.282;2023-03-14T12:46:25;8.35;;;1.45;;
27666;SDS011;15074;50.940;5.282;2023-03-14T12:48:46;10.80;;;1.73;;
27666;SDS011;15074;50.940;5.282;2023-03-14T12:51:15;8.85;;;1.67;;
27666;SDS011;15074;50.940;5.282;2023-03-14T12:56:21;5.10;;;1.50;;
27666;SDS011;15074;50.940;5.282;2023-03-14T13:01:59;5.18;;;1.60;;
27666;SDS011;15074;50.940;5.282;2023-03-14T13:04:26;18.25;;;2.20;;
27666;SDS011;15074;50.940;5.282;2023-03-14T13:06:56;4.53;;;1.77;;
27666;SDS011;15074;50.940;5.282;2023-03-14T13:11:55;5.45;;;1.73;;
27666;SDS011;15074;50.940;5.282;2023-03-14T13:14:25;7.82;;;2.72;;
27666;SDS011;15074;50.940;5.282;2023-03-14T13:19:20;8.70;;;2.20;;
27666;SDS011;15074;50.940;5.282;2023-03-14T13:21:50;6.65;;;2.40;;
27666;SDS011;15074;50.940;5.282;2023-03-14T13:26:56;7.35;;;2.67;;
27666;SDS011;15074;50.940;5.282;2023-03-14T13:29:25;13.45;;;3.25;;
27666;SDS011;15074;50.940;5.282;2023-03-14T13:34:19;15.82;;;3.88;;
27666;SDS011;15074;50.940;5.282;2023-03-14T13:36:45;18.88;;;12.02;;
27666;SDS011;15074;50.940;5.282;2023-03-14T13:39:16;14.25;;;8.77;;
27666;SDS011;15074;50.940;5.282;2023-03-14T13:41:44;9.70;;;3.00;;
27666;SDS011;15074;50.940;5.282;2023-03-14T13:44:16;8.60;;;3.22;;
27666;SDS011;15074;50.940;5.282;2023-03-14T13:46:48;12.55;;;3.08;;
27666;SDS011;15074;50.940;5.282;2023-03-14T13:49:18;10.25;;;3.13;;
27666;SDS011;15074;50.940;5.282;2023-03-14T13:51:50;7.60;;;2.40;;
27666;SDS011;15074;50.940;5.282;2023-03-14T13:54:16;15.00;;;4.75;;
27666;SDS011;15074;50.940;5.282;2023-03-14T13:56:43;13.05;;;2.30;;
27666;SDS011;15074;50.940;5.282;2023-03-14T13:59:25;8.90;;;2.28;;
27666;SDS011;15074;50.940;5.282;2023-03-14T14:02:03;6.70;;;1.98;;
27666;SDS011;15074;50.940;5.282;2023-03-14T14:04:47;6.93;;;1.88;;
27666;SDS011;15074;50.940;5.282;2023-03-14T14:07:15;3.65;;;1.40;;
27666;SDS011;15074;50.940;5.282;2023-03-14T14:09:52;4.97;;;1.45;;
27666;SDS011;15074;50.940;5.282;2023-03-14T14:12:23;3.53;;;1.25;;
27666;SDS011;15074;50.940;5.282;2023-03-14T14:22:58;4.40;;;1.30;;
27666;SDS011;15074;50.940;5.282;2023-03-14T14:25:25;9.85;;;1.58;;
27666;SDS011;15074;50.940;5.282;2023-03-14T14:27:51;6.22;;;1.85;;
27666;SDS011;15074;50.940;5.282;2023-03-14T14:32:42;4.72;;;1.63;;
27666;SDS011;15074;50.940;5.282;2023-03-14T14:35:10;4.32;;;1.65;;
27666;SDS011;15074;50.940;5.282;2023-03-14T14:37:46;3.03;;;1.20;;
27666;SDS011;15074;50.940;5.282;2023-03-14T14:40:18;2.65;;;0.95;;
27666;SDS011;15074;50.940;5.282;2023-03-14T14:42:45;3.85;;;1.30;;
27666;SDS011;15074;50.940;5.282;2023-03-14T14:45:22;4.15;;;1.15;;
27666;SDS011;15074;50.940;5.282;2023-03-14T14:47:53;5.07;;;1.20;;
27666;SDS011;15074;50.940;5.282;2023-03-14T14:50:36;5.78;;;1.42;;
27666;SDS011;15074;50.940;5.282;2023-03-14T14:53:21;4.57;;;1.40;;
27666;SDS011;15074;50.940;5.282;2023-03-14T14:56:13;5.30;;;1.40;;
27666;SDS011;15074;50.940;5.282;2023-03-14T14:58:43;4.10;;;1.40;;
27666;SDS011;15074;50.940;5.282;2023-03-14T15:01:14;3.30;;;1.73;;
27666;SDS011;15074;50.940;5.282;2023-03-14T15:03:47;7.60;;;1.42;;
27666;SDS011;15074;50.940;5.282;2023-03-14T15:06:17;6.30;;;1.50;;
27666;SDS011;15074;50.940;5.282;2023-03-14T15:08:44;4.45;;;1.80;;
27666;SDS011;15074;50.940;5.282;2023-03-14T15:11:15;9.00;;;1.73;;
27666;SDS011;15074;50.940;5.282;2023-03-14T15:13:43;8.95;;;1.80;;
27666;SDS011;15074;50.940;5.282;2023-03-14T15:16:10;6.43;;;1.58;;
27666;SDS011;15074;50.940;5.282;2023-03-14T15:18:36;6.78;;;1.38;;
27666;SDS011;15074;50.940;5.282;2023-03-14T15:21:02;6.28;;;2.50;;
27666;SDS011;15074;50.940;5.282;2023-03-14T15:23:28;5.13;;;1.30;;
27666;SDS011;15074;50.940;5.282;2023-03-14T15:25:54;7.30;;;1.20;;
27666;SDS011;15074;50.940;5.282;2023-03-14T15:28:23;7.20;;;1.45;;
27666;SDS011;15074;50.940;5.282;2023-03-14T15:30:57;5.65;;;1.27;;
27666;SDS011;15074;50.940;5.282;2023-03-14T15:33:24;3.17;;;1.05;;
27666;SDS011;15074;50.940;5.282;2023-03-14T15:35:51;3.28;;;0.98;;
27666;SDS011;15074;50.940;5.282;2023-03-14T15:38:18;6.68;;;1.20;;
27666;SDS011;15074;50.940;5.282;2023-03-14T15:40:48;2.45;;;1.05;;
27666;SDS011;15074;50.940;5.282;2023-03-14T15:43:14;4.60;;;1.40;;
27666;SDS011;15074;50.940;5.282;2023-03-14T15:45:40;2.90;;;0.90;;
27666;SDS011;15074;50.940;5.282;2023-03-14T15:48:08;3.90;;;1.45;;
27666;SDS011;15074;50.940;5.282;2023-03-14T15:50:40;9.45;;;1.13;;
27666;SDS011;15074;50.940;5.282;2023-03-14T15:53:05;7.65;;;0.90;;
27666;SDS011;15074;50.940;5.282;2023-03-14T15:55:31;3.92;;;0.90;;
27666;SDS011;15074;50.940;5.282;2023-03-14T15:57:57;2.78;;;1.08;;
27666;SDS011;15074;50.940;5.282;2023-03-14T16:00:24;2.88;;;0.75;;
27666;SDS011;15074;50.940;5.282;2023-03-14T16:02:50;4.53;;;2.03;;
27666;SDS011;15074;50.940;5.282;2023-03-14T16:05:15;5.60;;;1.25;;
27666;SDS011;15074;50.940;5.282;2023-03-14T16:07:44;4.38;;;1.40;;
27666;SDS011;15074;50.940;5.282;2023-03-14T16:10:11;5.25;;;1.20;;
27666;SDS011;15074;50.940;5.282;2023-03-14T16:15:04;3.78;;;1.10;;
27666;SDS011;15074;50.940;5.282;2023-03-14T16:17:31;4.03;;;1.30;;
27666;SDS011;15074;50.940;5.282;2023-03-14T16:19:57;5.40;;;1.30;;
27666;SDS011;15074;50.940;5.282;2023-03-14T16:22:23;2.38;;;1.00;;
27666;SDS011;15074;50.940;5.282;2023-03-14T16:24:48;3.10;;;1.02;;
27666;SDS011;15074;50.940;5.282;2023-03-14T16:27:14;7.10;;;1.10;;
27666;SDS011;15074;50.940;5.282;2023-03-14T16:29:40;4.45;;;1.00;;
27666;SDS011;15074;50.940;5.282;2023-03-14T16:32:07;7.70;;;1.40;;
27666;SDS011;15074;50.940;5.282;2023-03-14T16:34:33;5.90;;;1.10;;
27666;SDS011;15074;50.940;5.282;2023-03-14T16:37:01;7.22;;;1.50;;
27666;SDS011;15074;50.940;5.282;2023-03-14T16:39:27;4.82;;;1.52;;
27666;SDS011;15074;50.940;5.282;2023-03-14T16:41:56;4.30;;;1.52;;
27666;SDS011;15074;50.940;5.282;2023-03-14T16:44:22;9.90;;;1.45;;
27666;SDS011;15074;50.940;5.282;2023-03-14T16:46:48;5.88;;;1.90;;
27666;SDS011;15074;50.940;5.282;2023-03-14T16:49:14;5.00;;;1.67;;